createdAt,value
2018-08-10T00:01:46.628Z,19.75
2018-08-10T00:04:13.639Z,19.75
2018-08-10T00:06:40.923Z,19.80
2018-08-10T00:09:09.610Z,19.75
2018-08-10T00:11:36.593Z,19.63
2018-08-10T00:14:03.672Z,19.68
2018-08-10T00:16:30.640Z,19.71
2018-08-10T00:18:57.688Z,19.70
2018-08-10T00:21:25.049Z,19.63
2018-08-10T00:23:52.121Z,19.62
2018-08-10T00:26:19.179Z,19.64
2018-08-10T00:28:46.243Z,19.65
2018-08-10T00:31:13.231Z,19.69
2018-08-10T00:33:40.359Z,19.82
2018-08-10T00:36:07.392Z,19.79
2018-08-10T00:38:34.382Z,19.83
2018-08-10T00:41:01.463Z,19.81
2018-08-10T00:43:28.470Z,19.84
2018-08-10T00:45:55.532Z,19.82
2018-08-10T00:48:22.571Z,19.82
2018-08-10T00:50:49.699Z,19.72
2018-08-10T00:53:16.784Z,19.64
2018-08-10T00:55:43.884Z,19.58
2018-08-10T00:58:10.886Z,19.60
2018-08-10T01:00:37.904Z,19.55
2018-08-10T01:03:05.007Z,19.45
2018-08-10T01:05:32.159Z,19.55
2018-08-10T01:07:59.227Z,19.53
2018-08-10T01:10:26.222Z,19.51
2018-08-10T01:12:53.248Z,19.51
2018-08-10T01:15:20.267Z,19.35
2018-08-10T01:17:47.367Z,19.41
2018-08-10T01:20:18.603Z,19.44
2018-08-10T01:22:51.341Z,19.38
2018-08-10T01:25:19.531Z,19.42
2018-08-10T01:27:52.431Z,19.46
2018-08-10T01:30:19.426Z,19.38
2018-08-10T01:32:46.448Z,19.37
2018-08-10T01:35:13.479Z,19.35
2018-08-10T01:37:40.503Z,19.33
2018-08-10T01:40:08.064Z,19.33
2018-08-10T01:42:35.453Z,19.35
2018-08-10T01:45:02.520Z,19.44
2018-08-10T01:47:29.595Z,19.42
2018-08-10T01:49:56.710Z,19.48
2018-08-10T01:52:23.888Z,19.44
2018-08-10T01:54:50.883Z,19.49
2018-08-10T01:57:17.928Z,19.47
2018-08-10T01:59:44.915Z,19.47
2018-08-10T02:02:11.924Z,19.45
2018-08-10T02:04:39.086Z,19.44
2018-08-10T02:07:06.094Z,19.45
2018-08-10T02:09:33.077Z,19.40
2018-08-10T02:12:00.171Z,19.41
2018-08-10T02:14:27.228Z,19.38
2018-08-10T02:16:54.321Z,19.37
2018-08-10T02:19:21.294Z,19.28
2018-08-10T02:21:48.317Z,19.23
2018-08-10T02:24:15.627Z,19.15
2018-08-10T02:26:42.645Z,19.05
2018-08-10T02:29:09.823Z,19.03
2018-08-10T02:31:36.911Z,18.95
2018-08-10T02:34:03.956Z,18.91
2018-08-10T02:36:31.068Z,18.87
2018-08-10T02:38:58.072Z,18.83
2018-08-10T02:41:25.063Z,18.88
2018-08-10T02:43:52.048Z,18.85
2018-08-10T02:46:19.083Z,18.80
2018-08-10T02:48:46.176Z,18.83
2018-08-10T02:51:13.226Z,18.84
2018-08-10T02:53:40.275Z,18.84
2018-08-10T02:56:07.312Z,18.80
2018-08-10T02:58:34.312Z,18.85
2018-08-10T03:01:01.647Z,18.79
2018-08-10T03:03:28.656Z,18.77
2018-08-10T03:05:55.635Z,18.75
2018-08-10T03:08:22.891Z,18.74
2018-08-10T03:10:49.867Z,18.65
2018-08-10T03:13:16.933Z,18.63
2018-08-10T03:15:44.051Z,18.58
2018-08-10T03:18:11.047Z,18.56
2018-08-10T03:20:38.055Z,18.54
2018-08-10T03:23:05.283Z,18.57
2018-08-10T03:25:32.275Z,18.61
2018-08-10T03:27:59.249Z,18.62
2018-08-10T03:30:26.253Z,18.59
2018-08-10T03:32:53.259Z,18.60
2018-08-10T03:35:20.259Z,18.54
2018-08-10T03:37:47.275Z,18.49
2018-08-10T03:40:15.131Z,18.50
2018-08-10T03:42:42.159Z,18.48
2018-08-10T03:45:09.624Z,18.46
2018-08-10T03:47:36.684Z,18.48
2018-08-10T03:50:04.929Z,18.44
2018-08-10T03:52:31.931Z,18.42
2018-08-10T03:54:58.996Z,18.35
2018-08-10T03:57:26.019Z,18.37
2018-08-10T03:59:53.155Z,18.35
2018-08-10T04:02:20.331Z,18.32
2018-08-10T04:04:47.324Z,18.26
2018-08-10T04:07:14.381Z,18.24
2018-08-10T04:09:41.391Z,18.21
2018-08-10T04:12:08.455Z,18.23
2018-08-10T04:14:35.471Z,18.17
2018-08-10T04:17:02.459Z,18.18
2018-08-10T04:19:29.464Z,18.15
2018-08-10T04:21:56.527Z,18.13
2018-08-10T04:24:23.666Z,18.10
2018-08-10T04:26:50.696Z,18.05
2018-08-10T04:29:17.746Z,18.05
2018-08-10T04:31:44.742Z,18.00
2018-08-10T04:34:11.748Z,18.05
2018-08-10T04:36:38.776Z,18.01
2018-08-10T04:39:08.547Z,17.97
2018-08-10T04:41:35.535Z,17.90
2018-08-10T04:44:02.547Z,17.92
2018-08-10T04:46:29.539Z,17.89
2018-08-10T04:48:56.508Z,17.85
2018-08-10T04:51:23.683Z,17.75
2018-08-10T04:53:50.697Z,17.74
2018-08-10T04:56:17.814Z,17.72
2018-08-10T04:58:45.028Z,17.75
2018-08-10T05:01:12.015Z,17.73
2018-08-10T05:03:39.022Z,17.68
2018-08-10T05:06:06.039Z,17.63
2018-08-10T05:08:33.078Z,17.64
2018-08-10T05:11:00.126Z,17.56
2018-08-10T05:13:27.164Z,17.57
2018-08-10T05:15:54.188Z,17.52
2018-08-10T05:18:22.675Z,17.53
2018-08-10T05:20:49.739Z,17.57
2018-08-10T05:23:23.804Z,17.43
2018-08-10T05:25:50.930Z,17.58
2018-08-10T05:28:17.989Z,17.50
2018-08-10T05:30:45.012Z,17.47
2018-08-10T05:33:12.410Z,17.38
2018-08-10T05:35:39.490Z,17.48
2018-08-10T05:38:06.867Z,17.55
2018-08-10T05:40:33.982Z,17.45
2018-08-10T05:43:01.032Z,17.42
2018-08-10T05:45:28.079Z,17.51
2018-08-10T05:47:55.071Z,17.38
2018-08-10T05:50:22.083Z,17.39
2018-08-10T05:52:49.391Z,17.33
2018-08-10T05:55:16.711Z,17.22
2018-08-10T05:57:43.752Z,17.14
2018-08-10T06:00:10.844Z,17.21
2018-08-10T06:02:37.978Z,17.11
2018-08-10T06:05:05.643Z,17.08
2018-08-10T06:07:32.728Z,17.03
2018-08-10T06:09:59.995Z,17.02
2018-08-10T06:12:27.215Z,17.07
2018-08-10T06:14:54.212Z,17.19
2018-08-10T06:17:21.218Z,17.34
2018-08-10T06:19:48.664Z,17.14
2018-08-10T06:22:15.660Z,17.11
2018-08-10T06:24:42.678Z,17.17
2018-08-10T06:27:09.782Z,17.24
2018-08-10T06:29:36.807Z,17.24
2018-08-10T06:32:03.827Z,17.36
2018-08-10T06:34:31.063Z,17.25
2018-08-10T06:36:58.120Z,17.17
2018-08-10T06:39:25.373Z,17.15
2018-08-10T06:41:52.447Z,17.08
2018-08-10T06:44:19.941Z,17.10
2018-08-10T06:46:47.013Z,17.18
2018-08-10T06:49:14.350Z,17.18
2018-08-10T06:51:41.335Z,17.35
2018-08-10T06:54:08.348Z,17.36
2018-08-10T06:56:35.363Z,17.38
2018-08-10T06:59:02.392Z,17.29
2018-08-10T07:01:29.417Z,17.39
2018-08-10T07:03:56.523Z,17.36
2018-08-10T07:06:23.508Z,17.35
2018-08-10T07:08:50.984Z,17.46
2018-08-10T07:11:18.364Z,17.78
2018-08-10T07:13:45.726Z,17.57
2018-08-10T07:16:12.724Z,17.64
2018-08-10T07:18:39.875Z,17.71
2018-08-10T07:21:06.910Z,17.74
2018-08-10T07:23:33.885Z,17.71
2018-08-10T07:26:00.963Z,17.89
2018-08-10T07:28:28.210Z,17.94
2018-08-10T07:30:55.200Z,17.95
2018-08-10T07:33:22.423Z,17.81
2018-08-10T07:35:49.519Z,17.95
2018-08-10T07:38:16.706Z,17.95
2018-08-10T07:40:44.148Z,17.67
2018-08-10T07:43:11.323Z,17.63
2018-08-10T07:45:38.591Z,17.62
2018-08-10T07:48:05.675Z,17.54
2018-08-10T07:50:32.799Z,17.54
2018-08-10T07:52:59.937Z,17.66
2018-08-10T07:55:26.967Z,17.66
2018-08-10T07:57:54.156Z,17.83
2018-08-10T08:00:21.205Z,17.81
2018-08-10T08:02:48.660Z,17.82
2018-08-10T08:05:15.995Z,17.79
2018-08-10T08:07:43.091Z,18.03
2018-08-10T08:10:10.129Z,17.88
2018-08-10T08:12:37.179Z,17.99
2018-08-10T08:15:04.582Z,18.16
2018-08-10T08:17:31.591Z,18.10
2018-08-10T08:19:58.709Z,18.03
2018-08-10T08:22:25.715Z,18.13
2018-08-10T08:24:52.708Z,18.14
2018-08-10T08:27:20.027Z,18.10
2018-08-10T08:29:47.103Z,18.35
2018-08-10T08:32:14.155Z,18.56
2018-08-10T08:34:41.268Z,18.73
2018-08-10T08:37:08.829Z,18.42
2018-08-10T08:40:46.757Z,18.49
2018-08-10T08:43:14.482Z,18.43
2018-08-10T08:45:46.994Z,18.73
2018-08-10T08:48:13.825Z,19.13
2018-08-10T08:50:42.175Z,19.12
2018-08-10T08:53:09.223Z,18.80
2018-08-10T08:55:38.659Z,18.79
2018-08-10T08:58:05.983Z,18.97
2018-08-10T09:00:33.027Z,18.72
2018-08-10T09:03:00.487Z,18.69
2018-08-10T09:05:27.607Z,18.80
2018-08-10T09:07:54.670Z,18.75
2018-08-10T09:10:21.823Z,18.73
2018-08-10T09:12:48.835Z,19.14
2018-08-10T09:15:17.680Z,19.13
2018-08-10T09:17:44.741Z,18.88
2018-08-10T09:20:11.884Z,18.72
2018-08-10T09:22:38.979Z,18.51
2018-08-10T09:25:07.803Z,18.37
2018-08-10T09:27:34.852Z,18.40
2018-08-10T09:30:01.843Z,18.34
2018-08-10T09:32:28.857Z,18.41
2018-08-10T09:34:55.859Z,18.48
2018-08-10T09:37:22.909Z,18.52
2018-08-10T09:39:50.016Z,18.49
2018-08-10T09:42:17.112Z,18.69
2018-08-10T09:44:44.067Z,18.92
2018-08-10T09:47:11.244Z,19.14
2018-08-10T09:49:41.091Z,19.44
2018-08-10T09:52:08.128Z,19.72
2018-08-10T09:54:47.002Z,19.50
2018-08-10T09:57:14.534Z,19.58
2018-08-10T09:59:41.553Z,19.31
2018-08-10T10:02:13.415Z,19.63
2018-08-10T10:04:40.411Z,19.81
2018-08-10T10:07:07.469Z,19.58
2018-08-10T10:09:35.475Z,19.70
2018-08-10T10:12:02.607Z,19.63
2018-08-10T10:14:29.631Z,19.71
2018-08-10T10:16:56.681Z,19.83
2018-08-10T10:19:23.695Z,20.30
2018-08-10T10:21:50.709Z,20.28
2018-08-10T10:24:17.830Z,20.06
2018-08-10T10:26:44.897Z,20.27
2018-08-10T10:29:11.964Z,20.68
2018-08-10T10:31:38.995Z,20.42
2018-08-10T10:34:06.015Z,20.02
2018-08-10T10:36:33.035Z,19.95
2018-08-10T10:39:00.335Z,20.30
2018-08-10T10:41:27.362Z,20.54
2018-08-10T10:43:54.335Z,20.54
2018-08-10T10:46:21.420Z,19.93
2018-08-10T10:48:48.428Z,19.71
2018-08-10T10:51:15.523Z,19.65
2018-08-10T10:53:42.907Z,19.76
2018-08-10T10:56:09.978Z,20.10
2018-08-10T10:58:36.928Z,20.02
2018-08-10T11:01:04.148Z,19.91
2018-08-10T11:03:31.144Z,19.75
2018-08-10T11:05:58.177Z,19.57
2018-08-10T11:08:25.236Z,19.74
2018-08-10T11:10:52.229Z,19.71
2018-08-10T11:13:26.522Z,19.57
2018-08-10T11:15:53.511Z,19.68
2018-08-10T11:18:20.511Z,19.62
2018-08-10T11:20:48.107Z,19.72
2018-08-10T11:23:15.105Z,20.00
2018-08-10T11:25:42.220Z,20.36
2018-08-10T11:28:09.142Z,20.09
2018-08-10T11:30:36.145Z,20.40
2018-08-10T11:33:03.177Z,20.55
2018-08-10T11:35:30.199Z,20.92
2018-08-10T11:37:57.243Z,20.82
2018-08-10T11:40:24.293Z,20.57
2018-08-10T11:42:51.340Z,20.61
2018-08-10T11:45:18.380Z,21.09
2018-08-10T11:47:45.407Z,20.80
2018-08-10T11:50:12.504Z,20.74
2018-08-10T11:52:39.526Z,20.89
2018-08-10T11:55:08.165Z,20.88
2018-08-10T11:57:35.139Z,20.74
2018-08-10T12:00:02.350Z,20.66
2018-08-10T12:02:29.324Z,20.63
2018-08-10T12:04:56.419Z,20.54
2018-08-10T12:07:23.388Z,20.68
2018-08-10T12:09:50.449Z,21.14
2018-08-10T12:12:17.510Z,20.80
2018-08-10T12:14:44.505Z,20.69
2018-08-10T12:17:11.511Z,20.95
2018-08-10T12:19:38.807Z,21.20
2018-08-10T12:22:05.880Z,21.71
2018-08-10T12:24:33.108Z,21.82
2018-08-10T12:27:00.167Z,21.76
2018-08-10T12:29:27.483Z,22.16
2018-08-10T12:31:54.478Z,22.12
2018-08-10T12:34:21.524Z,21.82
2018-08-10T12:36:48.560Z,21.78
2018-08-10T12:39:15.715Z,21.55
2018-08-10T12:41:42.832Z,21.24
2018-08-10T12:44:10.051Z,21.26
2018-08-10T12:46:37.344Z,21.25
2018-08-10T12:49:04.327Z,21.89
2018-08-10T12:51:31.341Z,22.48
2018-08-10T12:53:58.674Z,22.38
2018-08-10T12:56:25.809Z,22.46
2018-08-10T12:58:52.835Z,23.16
2018-08-10T13:01:19.847Z,23.66
2018-08-10T13:03:46.850Z,23.58
2018-08-10T13:06:13.839Z,23.64
2018-08-10T13:08:40.856Z,23.78
2018-08-10T13:11:07.958Z,23.86
2018-08-10T13:13:34.951Z,23.57
2018-08-10T13:16:01.968Z,23.62
2018-08-10T13:18:29.005Z,23.81
2018-08-10T13:20:56.041Z,24.32
2018-08-10T13:23:23.072Z,24.38
2018-08-10T13:25:50.135Z,23.66
2018-08-10T13:28:17.141Z,23.80
2018-08-10T13:30:44.183Z,23.88
2018-08-10T13:33:11.321Z,23.82
2018-08-10T13:35:38.333Z,24.61
2018-08-10T13:38:06.268Z,24.20
2018-08-10T13:40:33.340Z,23.23
2018-08-10T13:43:00.355Z,23.37
2018-08-10T13:45:27.431Z,23.39
2018-08-10T13:47:54.563Z,23.10
2018-08-10T13:50:21.658Z,23.84
2018-08-10T13:52:48.674Z,24.13
2018-08-10T13:55:17.294Z,24.51
2018-08-10T13:57:44.876Z,24.64
2018-08-10T14:00:17.744Z,24.63
2018-08-10T14:02:44.783Z,24.80
2018-08-10T14:05:12.140Z,24.33
2018-08-10T14:07:40.230Z,23.93
2018-08-10T14:10:07.287Z,23.78
2018-08-10T14:12:34.331Z,23.08
2018-08-10T14:15:01.319Z,22.77
2018-08-10T14:17:28.328Z,22.48
2018-08-10T14:19:55.364Z,22.22
2018-08-10T14:22:22.388Z,22.03
2018-08-10T14:24:49.478Z,21.99
2018-08-10T14:27:16.788Z,21.89
2018-08-10T14:29:43.784Z,21.87
2018-08-10T14:32:10.785Z,21.42
2018-08-10T14:34:37.799Z,21.01
2018-08-10T14:37:04.815Z,20.80
2018-08-10T14:39:31.800Z,20.67
2018-08-10T14:41:58.888Z,20.72
2018-08-10T14:44:25.870Z,20.86
2018-08-10T14:46:52.993Z,20.95
2018-08-10T14:49:19.956Z,21.02
2018-08-10T14:51:46.964Z,21.13
2018-08-10T14:54:13.975Z,21.13
2018-08-10T14:56:40.967Z,21.16
2018-08-10T14:59:08.035Z,21.22
2018-08-10T15:01:35.754Z,21.22
2018-08-10T15:04:02.803Z,21.28
2018-08-10T15:06:29.827Z,21.23
2018-08-10T15:08:56.896Z,21.06
2018-08-10T15:11:23.895Z,20.98
2018-08-10T15:13:50.876Z,21.02
2018-08-10T15:16:18.316Z,21.07
2018-08-10T15:18:45.532Z,21.14
2018-08-10T15:21:12.909Z,21.39
2018-08-10T15:23:39.920Z,21.69
2018-08-10T15:26:07.319Z,22.08
2018-08-10T15:28:34.483Z,21.70
2018-08-10T15:31:01.593Z,21.31
2018-08-10T15:33:29.408Z,21.03
2018-08-10T15:35:56.480Z,20.64
2018-08-10T15:38:24.021Z,20.53
2018-08-10T15:40:50.964Z,20.40
2018-08-10T15:43:18.043Z,20.39
2018-08-10T15:45:45.059Z,20.21
2018-08-10T15:48:12.366Z,20.23
2018-08-10T15:50:39.683Z,20.19
2018-08-10T15:53:07.297Z,20.00
2018-08-10T15:55:34.357Z,19.95
2018-08-10T15:58:01.845Z,19.92
2018-08-10T16:00:28.891Z,19.85
2018-08-10T16:02:56.244Z,19.81
2018-08-10T16:05:23.437Z,19.72
2018-08-10T16:07:50.439Z,19.72
2018-08-10T16:10:17.483Z,19.66
2018-08-10T16:12:45.184Z,19.69
2018-08-10T16:15:16.492Z,19.55
2018-08-10T16:17:43.495Z,19.55
2018-08-10T16:20:12.472Z,19.73
2018-08-10T16:22:39.477Z,19.71
2018-08-10T16:25:07.951Z,19.65
2018-08-10T16:27:35.718Z,19.71
2018-08-10T16:30:02.847Z,19.79
2018-08-10T16:32:30.024Z,19.89
2018-08-10T16:34:57.111Z,19.96
2018-08-10T16:37:24.144Z,20.02
2018-08-10T16:39:51.500Z,19.97
2018-08-10T16:42:18.667Z,19.91
2018-08-10T16:44:45.747Z,19.82
2018-08-10T16:47:12.782Z,19.79
2018-08-10T16:49:39.855Z,19.78
2018-08-10T16:52:06.913Z,19.76
2018-08-10T16:54:34.191Z,19.75
2018-08-10T16:57:01.481Z,19.74
2018-08-10T16:59:28.533Z,19.86
2018-08-10T17:01:55.547Z,19.94
2018-08-10T17:04:22.991Z,19.94
2018-08-10T17:06:49.988Z,19.87
2018-08-10T17:09:16.964Z,19.87
2018-08-10T17:11:44.383Z,19.81
2018-08-10T17:14:11.507Z,19.70
2018-08-10T17:16:39.004Z,19.70
2018-08-10T17:19:06.155Z,19.74
2018-08-10T17:25:12.938Z,19.92
2018-08-10T17:27:47.471Z,19.98
2018-08-10T17:30:16.497Z,19.90
2018-08-10T17:32:43.884Z,19.81
2018-08-10T17:35:12.441Z,19.78
2018-08-10T17:37:40.186Z,19.91
2018-08-10T17:40:08.049Z,19.76
2018-08-10T17:42:35.200Z,19.93
2018-08-10T17:45:33.471Z,19.71
2018-08-10T17:48:00.464Z,19.79
2018-08-10T17:50:27.443Z,19.77
2018-08-10T17:52:54.511Z,19.71
2018-08-10T17:55:22.936Z,19.77
2018-08-10T17:57:50.052Z,19.71
2018-08-10T18:00:20.362Z,19.75
2018-08-10T18:02:48.243Z,19.51
2018-08-10T18:05:17.247Z,19.46
2018-08-10T18:07:44.983Z,19.41
2018-08-10T18:10:12.979Z,19.35
2018-08-10T18:12:40.860Z,19.30
2018-08-10T18:15:10.428Z,19.29
2018-08-10T18:17:38.707Z,19.23
2018-08-10T18:20:08.207Z,19.26
2018-08-10T18:22:35.336Z,19.30
2018-08-10T18:25:02.759Z,19.14
2018-08-10T18:27:29.859Z,19.09
2018-08-10T18:29:56.815Z,19.21
2018-08-10T18:32:23.840Z,18.99
2018-08-10T18:34:50.835Z,19.00
2018-08-10T18:37:17.958Z,18.89
2018-08-10T18:39:44.959Z,18.94
2018-08-10T18:42:12.636Z,18.81
2018-08-10T18:44:39.844Z,18.93
2018-08-10T18:47:06.901Z,18.95
2018-08-10T18:49:33.986Z,18.78
2018-08-10T18:52:01.032Z,18.68
2018-08-10T18:54:28.753Z,18.53
2018-08-10T18:56:55.848Z,18.51
2018-08-10T18:59:22.927Z,18.61
2018-08-10T19:01:50.001Z,18.52
2018-08-10T19:04:17.207Z,18.45
2018-08-10T19:06:45.280Z,18.09
2018-08-10T19:09:12.504Z,17.96
2018-08-10T19:11:39.725Z,17.85
2018-08-10T19:14:06.831Z,17.81
2018-08-10T19:16:34.439Z,17.92
2018-08-10T19:19:01.535Z,18.12
2018-08-10T19:21:28.883Z,17.97
2018-08-10T19:23:55.984Z,17.90
2018-08-10T19:26:23.095Z,17.61
2018-08-10T19:36:36.675Z,17.67
2018-08-10T19:42:37.259Z,17.62
2018-08-10T19:52:13.048Z,17.67
2018-08-10T19:54:40.128Z,17.42
2018-08-10T19:57:07.143Z,17.40
2018-08-10T19:59:34.204Z,17.14
2018-08-10T20:02:01.290Z,17.08
2018-08-10T20:04:28.984Z,16.65
2018-08-10T20:06:56.296Z,16.73
2018-08-10T20:09:23.351Z,16.60
2018-08-10T20:11:50.435Z,16.78
2018-08-10T20:14:17.572Z,16.62
2018-08-10T20:16:44.576Z,16.29
2018-08-10T20:19:11.605Z,16.29
2018-08-10T20:21:39.198Z,16.54
2018-08-10T20:24:06.299Z,16.44
2018-08-10T20:26:33.339Z,16.57
2018-08-10T20:29:00.632Z,16.49
2018-08-10T20:31:28.509Z,16.37
2018-08-10T20:33:55.876Z,16.64
2018-08-10T20:36:22.999Z,16.79
2018-08-10T20:38:50.038Z,16.56
2018-08-10T20:41:17.276Z,16.55
2018-08-10T20:43:45.097Z,16.60
2018-08-10T20:46:12.540Z,16.55
2018-08-10T20:48:39.600Z,16.42
2018-08-10T20:51:06.992Z,16.40
2018-08-10T20:53:34.047Z,16.38
2018-08-10T20:56:01.105Z,16.24
2018-08-10T20:58:28.652Z,16.44
2018-08-10T21:00:55.915Z,16.34
2018-08-10T21:03:22.938Z,16.16
2018-08-10T21:05:50.233Z,16.30
2018-08-10T21:08:17.517Z,16.16
2018-08-10T21:10:44.886Z,16.19
2018-08-10T21:13:12.291Z,16.18
2018-08-10T21:15:39.501Z,16.25
2018-08-10T21:18:06.532Z,16.21
2018-08-10T21:20:33.683Z,16.16
2018-08-10T21:23:00.691Z,16.14
2018-08-10T21:25:27.779Z,16.13
2018-08-10T21:27:55.209Z,16.20
2018-08-10T21:30:22.279Z,16.32
2018-08-10T21:32:49.346Z,16.31
2018-08-10T21:35:16.477Z,16.20
2018-08-10T21:37:44.294Z,16.08
2018-08-10T21:40:11.905Z,16.12
2018-08-10T21:42:39.792Z,15.92
2018-08-10T21:45:07.155Z,16.10
2018-08-10T21:47:34.300Z,16.11
2018-08-10T21:50:01.610Z,16.03
2018-08-10T21:52:28.956Z,16.07
2018-08-10T21:54:56.026Z,16.05
2018-08-10T21:57:23.028Z,16.18
2018-08-10T21:59:50.048Z,15.99
2018-08-10T22:02:17.713Z,15.91
2018-08-10T22:04:44.768Z,15.90
2018-08-10T22:07:11.794Z,15.91
2018-08-10T22:09:39.837Z,15.79
2018-08-10T22:12:06.886Z,15.81
2018-08-10T22:14:39.728Z,15.57
2018-08-10T22:17:12.423Z,15.64
2018-08-10T22:19:39.572Z,15.87
2018-08-10T22:22:06.787Z,16.01
2018-08-10T22:24:33.981Z,16.01
2018-08-10T22:27:01.045Z,15.96
2018-08-10T22:29:28.121Z,15.81
2018-08-10T22:31:55.177Z,15.80
2018-08-10T22:34:22.176Z,15.84
2018-08-10T22:36:49.220Z,15.61
2018-08-10T22:39:16.264Z,15.63
2018-08-10T22:41:43.308Z,15.46
2018-08-10T22:44:10.365Z,15.58
2018-08-10T22:46:37.415Z,15.61
2018-08-10T22:49:04.507Z,15.34
2018-08-10T22:51:31.603Z,15.36
2018-08-10T22:53:58.667Z,15.42
2018-08-10T22:56:25.734Z,15.53
2018-08-10T22:58:52.779Z,15.66
2018-08-10T23:01:20.189Z,15.58
2018-08-10T23:03:47.342Z,15.43
2018-08-10T23:06:14.476Z,15.39
2018-08-10T23:08:41.631Z,15.48
2018-08-10T23:11:08.575Z,15.57
2018-08-10T23:13:35.655Z,15.65
2018-08-10T23:16:02.774Z,15.35
2018-08-10T23:18:29.977Z,15.46
2018-08-10T23:20:57.025Z,15.46
2018-08-10T23:23:24.085Z,15.45
2018-08-10T23:25:51.105Z,15.41
2018-08-10T23:28:18.147Z,15.40
2018-08-10T23:30:45.203Z,15.41
2018-08-10T23:33:12.324Z,15.33
2018-08-10T23:35:39.378Z,15.50
2018-08-10T23:38:06.443Z,15.32
2018-08-10T23:40:33.558Z,15.28
2018-08-10T23:43:00.641Z,15.17
2018-08-10T23:45:27.742Z,15.12
2018-08-10T23:47:54.808Z,15.12
2018-08-10T23:50:21.879Z,15.05
2018-08-10T23:52:48.926Z,15.04
2018-08-10T23:55:17.559Z,15.04
2018-08-10T23:57:44.644Z,14.72
